sensor_id;sensor_type;location;lat;lon;timestamp;pressure;altitude;pressure_sealevel;temperature;humidity
48402;BME280;65988;52.422;16.746;2022-12-18T00:01:37;102070.13;;;-5.56;99.00
48402;BME280;65988;52.422;16.746;2022-12-18T00:04:04;102059.78;;;-5.72;99.05
48402;BME280;65988;52.422;16.746;2022-12-18T00:06:32;102072.16;;;-5.63;99.09
48402;BME280;65988;52.422;16.746;2022-12-18T00:08:59;102040.34;;;-5.87;99.04
48402;BME280;65988;52.422;16.746;2022-12-18T00:11:27;102057.03;;;-5.89;98.78
48402;BME280;65988;52.422;16.746;2022-12-18T00:13:55;102072.19;;;-5.75;98.80
48402;BME280;65988;52.422;16.746;2022-12-18T00:16:23;102043.53;;;-5.89;98.82
48402;BME280;65988;52.422;16.746;2022-12-18T00:18:50;102069.28;;;-5.81;98.96
48402;BME280;65988;52.422;16.746;2022-12-18T00:21:16;102056.34;;;-6.11;99.16
48402;BME280;65988;52.422;16.746;2022-12-18T00:23:43;102077.84;;;-5.91;99.07
48402;BME280;65988;52.422;16.746;2022-12-18T00:26:15;102068.25;;;-6.46;99.66
48402;BME280;65988;52.422;16.746;2022-12-18T00:28:41;102100.53;;;-6.40;100.00
48402;BME280;65988;52.422;16.746;2022-12-18T00:31:14;102104.56;;;-6.42;100.00
48402;BME280;65988;52.422;16.746;2022-12-18T00:33:39;102082.06;;;-6.41;100.00
48402;BME280;65988;52.422;16.746;2022-12-18T00:36:11;102125.34;;;-6.09;99.80
48402;BME280;65988;52.422;16.746;2022-12-18T00:38:37;102107.97;;;-6.18;99.77
48402;BME280;65988;52.422;16.746;2022-12-18T00:41:03;102126.47;;;-5.92;99.43
48402;BME280;65988;52.422;16.746;2022-12-18T00:43:29;102094.22;;;-5.98;99.15
48402;BME280;65988;52.422;16.746;2022-12-18T00:45:54;102096.34;;;-5.91;99.00
48402;BME280;65988;52.422;16.746;2022-12-18T00:48:20;102100.03;;;-5.99;98.93
48402;BME280;65988;52.422;16.746;2022-12-18T00:50:47;102112.97;;;-6.06;99.08
48402;BME280;65988;52.422;16.746;2022-12-18T00:53:13;102084.44;;;-6.30;99.06
48402;BME280;65988;52.422;16.746;2022-12-18T00:55:39;102088.84;;;-6.51;99.28
48402;BME280;65988;52.422;16.746;2022-12-18T00:58:05;102085.22;;;-6.79;99.64
48402;BME280;65988;52.422;16.746;2022-12-18T01:00:30;102117.31;;;-6.41;99.70
48402;BME280;65988;52.422;16.746;2022-12-18T01:02:56;102122.66;;;-6.60;99.68
48402;BME280;65988;52.422;16.746;2022-12-18T01:05:21;102092.06;;;-7.24;99.42
48402;BME280;65988;52.422;16.746;2022-12-18T01:07:46;102120.72;;;-7.22;100.00
48402;BME280;65988;52.422;16.746;2022-12-18T01:10:12;102125.22;;;-7.17;100.00
48402;BME280;65988;52.422;16.746;2022-12-18T01:12:38;102179.06;;;-6.92;100.00
48402;BME280;65988;52.422;16.746;2022-12-18T01:15:04;102166.69;;;-6.89;100.00
48402;BME280;65988;52.422;16.746;2022-12-18T01:17:30;102163.59;;;-7.42;100.00
48402;BME280;65988;52.422;16.746;2022-12-18T01:19:55;102141.16;;;-7.51;100.00
48402;BME280;65988;52.422;16.746;2022-12-18T01:22:21;102198.06;;;-7.07;100.00
48402;BME280;65988;52.422;16.746;2022-12-18T01:24:46;102165.13;;;-7.10;100.00
48402;BME280;65988;52.422;16.746;2022-12-18T01:27:11;102186.72;;;-6.90;100.00
48402;BME280;65988;52.422;16.746;2022-12-18T01:29:36;102177.56;;;-6.90;100.00
48402;BME280;65988;52.422;16.746;2022-12-18T01:32:02;102171.72;;;-6.89;100.00
48402;BME280;65988;52.422;16.746;2022-12-18T01:34:27;102178.97;;;-6.81;100.00
48402;BME280;65988;52.422;16.746;2022-12-18T01:36:52;102180.75;;;-6.68;100.00
48402;BME280;65988;52.422;16.746;2022-12-18T01:39:18;102165.13;;;-6.64;99.58
48402;BME280;65988;52.422;16.746;2022-12-18T01:41:44;102156.31;;;-6.81;99.42
48402;BME280;65988;52.422;16.746;2022-12-18T01:44:51;102169.59;;;-6.72;99.48
48402;BME280;65988;52.422;16.746;2022-12-18T01:47:23;102167.59;;;-6.76;99.51
48402;BME280;65988;52.422;16.746;2022-12-18T01:49:49;102148.75;;;-6.93;99.52
48402;BME280;65988;52.422;16.746;2022-12-18T01:52:15;102168.06;;;-6.70;99.13
48402;BME280;65988;52.422;16.746;2022-12-18T01:54:42;102159.31;;;-6.75;99.38
48402;BME280;65988;52.422;16.746;2022-12-18T01:57:07;102152.41;;;-6.90;99.29
48402;BME280;65988;52.422;16.746;2022-12-18T01:59:33;102147.66;;;-6.97;98.97
48402;BME280;65988;52.422;16.746;2022-12-18T02:02:01;102133.72;;;-7.15;99.49
48402;BME280;65988;52.422;16.746;2022-12-18T02:04:27;102159.03;;;-7.02;99.52
48402;BME280;65988;52.422;16.746;2022-12-18T02:09:59;102165.16;;;-6.98;99.54
48402;BME280;65988;52.422;16.746;2022-12-18T02:12:33;102158.50;;;-6.98;99.22
48402;BME280;65988;52.422;16.746;2022-12-18T02:15:06;102139.88;;;-7.12;98.93
48402;BME280;65988;52.422;16.746;2022-12-18T02:17:42;102132.44;;;-7.10;99.00
48402;BME280;65988;52.422;16.746;2022-12-18T02:20:24;102166.69;;;-7.00;99.24
48402;BME280;65988;52.422;16.746;2022-12-18T02:23:06;102116.16;;;-7.71;99.18
48402;BME280;65988;52.422;16.746;2022-12-18T02:28:23;102156.56;;;-7.46;99.21
48402;BME280;65988;52.422;16.746;2022-12-18T02:30:51;102167.06;;;-7.18;99.53
48402;BME280;65988;52.422;16.746;2022-12-18T02:33:20;102170.09;;;-7.22;99.38
48402;BME280;65988;52.422;16.746;2022-12-18T02:35:47;102156.78;;;-7.21;99.27
48402;BME280;65988;52.422;16.746;2022-12-18T02:38:14;102179.56;;;-7.08;98.87
48402;BME280;65988;52.422;16.746;2022-12-18T02:40:42;102182.22;;;-7.06;98.94
48402;BME280;65988;52.422;16.746;2022-12-18T02:43:13;102189.13;;;-6.92;98.79
48402;BME280;65988;52.422;16.746;2022-12-18T02:45:57;102146.00;;;-7.64;99.32
48402;BME280;65988;52.422;16.746;2022-12-18T02:48:32;102172.28;;;-7.27;98.98
48402;BME280;65988;52.422;16.746;2022-12-18T02:51:19;102164.66;;;-7.16;98.82
48402;BME280;65988;52.422;16.746;2022-12-18T02:53:55;102159.91;;;-7.35;98.83
48402;BME280;65988;52.422;16.746;2022-12-18T02:56:29;102152.94;;;-7.50;98.73
48402;BME280;65988;52.422;16.746;2022-12-18T02:59:05;102136.88;;;-7.52;98.68
48402;BME280;65988;52.422;16.746;2022-12-18T03:01:43;102168.28;;;-7.47;98.70
48402;BME280;65988;52.422;16.746;2022-12-18T03:04:32;102171.22;;;-7.52;98.99
48402;BME280;65988;52.422;16.746;2022-12-18T03:07:02;102169.63;;;-7.84;99.14
48402;BME280;65988;52.422;16.746;2022-12-18T03:09:34;102199.91;;;-7.61;99.51
48402;BME280;65988;52.422;16.746;2022-12-18T03:12:07;102168.56;;;-8.09;99.91
48402;BME280;65988;52.422;16.746;2022-12-18T03:14:55;102206.31;;;-7.97;100.00
48402;BME280;65988;52.422;16.746;2022-12-18T03:17:23;102213.28;;;-7.82;100.00
48402;BME280;65988;52.422;16.746;2022-12-18T03:19:51;102250.31;;;-7.47;100.00
48402;BME280;65988;52.422;16.746;2022-12-18T03:22:18;102194.66;;;-7.74;100.00
48402;BME280;65988;52.422;16.746;2022-12-18T03:24:46;102226.06;;;-7.69;100.00
48402;BME280;65988;52.422;16.746;2022-12-18T03:27:15;102201.19;;;-7.98;100.00
48402;BME280;65988;52.422;16.746;2022-12-18T03:29:47;102256.78;;;-7.51;100.00
48402;BME280;65988;52.422;16.746;2022-12-18T03:32:23;102209.06;;;-7.83;100.00
48402;BME280;65988;52.422;16.746;2022-12-18T03:34:51;102231.84;;;-7.70;100.00
48402;BME280;65988;52.422;16.746;2022-12-18T03:37:20;102229.44;;;-7.68;100.00
48402;BME280;65988;52.422;16.746;2022-12-18T03:39:45;102197.34;;;-8.15;100.00
48402;BME280;65988;52.422;16.746;2022-12-18T03:42:27;102210.63;;;-8.06;100.00
48402;BME280;65988;52.422;16.746;2022-12-18T03:45:10;102246.50;;;-7.97;100.00
48402;BME280;65988;52.422;16.746;2022-12-18T03:47:58;102229.72;;;-8.18;100.00
48402;BME280;65988;52.422;16.746;2022-12-18T03:50:56;102242.16;;;-8.10;100.00
48402;BME280;65988;52.422;16.746;2022-12-18T03:53:32;102277.50;;;-7.86;100.00
48402;BME280;65988;52.422;16.746;2022-12-18T03:56:00;102276.09;;;-7.72;100.00
48402;BME280;65988;52.422;16.746;2022-12-18T03:58:27;102258.03;;;-7.88;100.00
48402;BME280;65988;52.422;16.746;2022-12-18T04:00:56;102284.50;;;-7.71;100.00
48402;BME280;65988;52.422;16.746;2022-12-18T04:03:25;102280.31;;;-7.61;100.00
48402;BME280;65988;52.422;16.746;2022-12-18T04:05:54;102249.03;;;-7.64;100.00
48402;BME280;65988;52.422;16.746;2022-12-18T04:08:21;102248.06;;;-7.77;100.00
48402;BME280;65988;52.422;16.746;2022-12-18T04:10:47;102215.69;;;-8.16;100.00
48402;BME280;65988;52.422;16.746;2022-12-18T04:13:12;102275.31;;;-7.71;100.00
48402;BME280;65988;52.422;16.746;2022-12-18T04:15:46;102269.00;;;-7.66;100.00
48402;BME280;65988;52.422;16.746;2022-12-18T04:18:11;102243.47;;;-7.93;100.00
48402;BME280;65988;52.422;16.746;2022-12-18T04:20:36;102267.75;;;-7.71;100.00
48402;BME280;65988;52.422;16.746;2022-12-18T04:23:02;102246.91;;;-8.02;100.00
48402;BME280;65988;52.422;16.746;2022-12-18T04:25:27;102271.38;;;-8.00;100.00
48402;BME280;65988;52.422;16.746;2022-12-18T04:27:52;102260.84;;;-8.06;100.00
48402;BME280;65988;52.422;16.746;2022-12-18T04:30:17;102304.16;;;-7.98;100.00
48402;BME280;65988;52.422;16.746;2022-12-18T04:32:43;102286.84;;;-8.05;100.00
48402;BME280;65988;52.422;16.746;2022-12-18T04:35:08;102299.50;;;-7.94;100.00
48402;BME280;65988;52.422;16.746;2022-12-18T04:37:35;102314.19;;;-7.98;100.00
48402;BME280;65988;52.422;16.746;2022-12-18T04:40:00;102321.81;;;-7.86;100.00
48402;BME280;65988;52.422;16.746;2022-12-18T04:42:26;102321.81;;;-7.86;100.00
48402;BME280;65988;52.422;16.746;2022-12-18T04:44:51;102338.97;;;-7.60;100.00
48402;BME280;65988;52.422;16.746;2022-12-18T04:47:16;102313.16;;;-7.80;100.00
48402;BME280;65988;52.422;16.746;2022-12-18T04:49:41;102325.31;;;-7.74;100.00
48402;BME280;65988;52.422;16.746;2022-12-18T04:52:07;102339.22;;;-7.57;100.00
48402;BME280;65988;52.422;16.746;2022-12-18T04:54:32;102321.03;;;-7.65;100.00
48402;BME280;65988;52.422;16.746;2022-12-18T04:56:57;102346.09;;;-7.44;100.00
48402;BME280;65988;52.422;16.746;2022-12-18T04:59:22;102340.19;;;-7.45;100.00
48402;BME280;65988;52.422;16.746;2022-12-18T05:01:48;102357.19;;;-7.52;100.00
48402;BME280;65988;52.422;16.746;2022-12-18T05:04:13;102371.72;;;-7.38;100.00
48402;BME280;65988;52.422;16.746;2022-12-18T05:06:38;102352.63;;;-7.46;100.00
48402;BME280;65988;52.422;16.746;2022-12-18T05:09:03;102357.06;;;-7.54;100.00
48402;BME280;65988;52.422;16.746;2022-12-18T05:11:29;102358.16;;;-7.50;100.00
48402;BME280;65988;52.422;16.746;2022-12-18T05:13:54;102358.28;;;-7.49;100.00
48402;BME280;65988;52.422;16.746;2022-12-18T05:16:19;102355.69;;;-7.71;100.00
48402;BME280;65988;52.422;16.746;2022-12-18T05:18:44;102375.28;;;-7.67;100.00
48402;BME280;65988;52.422;16.746;2022-12-18T05:21:10;102397.41;;;-7.52;100.00
48402;BME280;65988;52.422;16.746;2022-12-18T05:23:35;102388.56;;;-7.47;100.00
48402;BME280;65988;52.422;16.746;2022-12-18T05:26:04;102398.53;;;-7.16;100.00
48402;BME280;65988;52.422;16.746;2022-12-18T05:28:31;102363.72;;;-7.54;100.00
48402;BME280;65988;52.422;16.746;2022-12-18T05:30:58;102420.09;;;-6.98;100.00
48402;BME280;65988;52.422;16.746;2022-12-18T05:33:26;102413.03;;;-6.92;100.00
48402;BME280;65988;52.422;16.746;2022-12-18T05:36:00;102400.63;;;-7.11;100.00
48402;BME280;65988;52.422;16.746;2022-12-18T05:38:26;102396.91;;;-7.16;100.00
48402;BME280;65988;52.422;16.746;2022-12-18T05:40:53;102403.56;;;-7.16;100.00
48402;BME280;65988;52.422;16.746;2022-12-18T05:43:20;102394.78;;;-7.22;100.00
48402;BME280;65988;52.422;16.746;2022-12-18T05:45:46;102420.75;;;-7.00;100.00
48402;BME280;65988;52.422;16.746;2022-12-18T05:48:12;102398.41;;;-7.18;100.00
48402;BME280;65988;52.422;16.746;2022-12-18T05:50:39;102386.97;;;-7.25;100.00
48402;BME280;65988;52.422;16.746;2022-12-18T05:53:05;102406.34;;;-7.13;100.00
48402;BME280;65988;52.422;16.746;2022-12-18T05:55:35;102409.31;;;-7.07;100.00
48402;BME280;65988;52.422;16.746;2022-12-18T05:58:01;102408.56;;;-7.06;100.00
48402;BME280;65988;52.422;16.746;2022-12-18T06:00:27;102418.06;;;-6.92;100.00
48402;BME280;65988;52.422;16.746;2022-12-18T06:02:52;102378.97;;;-7.31;100.00
48402;BME280;65988;52.422;16.746;2022-12-18T06:05:18;102409.59;;;-7.14;100.00
48402;BME280;65988;52.422;16.746;2022-12-18T06:07:43;102418.13;;;-7.12;100.00
48402;BME280;65988;52.422;16.746;2022-12-18T06:10:08;102391.78;;;-7.28;100.00
48402;BME280;65988;52.422;16.746;2022-12-18T06:12:33;102420.53;;;-7.14;100.00
48402;BME280;65988;52.422;16.746;2022-12-18T06:15:00;102403.59;;;-7.27;100.00
48402;BME280;65988;52.422;16.746;2022-12-18T06:17:32;102446.06;;;-6.87;100.00
48402;BME280;65988;52.422;16.746;2022-12-18T06:19:58;102415.88;;;-7.19;100.00
48402;BME280;65988;52.422;16.746;2022-12-18T06:22:24;102435.41;;;-7.27;100.00
48402;BME280;65988;52.422;16.746;2022-12-18T06:24:49;102436.78;;;-7.31;100.00
48402;BME280;65988;52.422;16.746;2022-12-18T06:27:15;102448.09;;;-7.26;100.00
48402;BME280;65988;52.422;16.746;2022-12-18T06:29:40;102441.94;;;-7.29;100.00
48402;BME280;65988;52.422;16.746;2022-12-18T06:32:05;102438.56;;;-7.40;100.00
48402;BME280;65988;52.422;16.746;2022-12-18T06:34:31;102433.03;;;-7.36;100.00
48402;BME280;65988;52.422;16.746;2022-12-18T06:36:57;102415.78;;;-7.64;100.00
48402;BME280;65988;52.422;16.746;2022-12-18T06:39:23;102452.00;;;-7.19;100.00
48402;BME280;65988;52.422;16.746;2022-12-18T06:41:48;102421.63;;;-7.43;100.00
48402;BME280;65988;52.422;16.746;2022-12-18T06:44:13;102446.22;;;-7.28;100.00
48402;BME280;65988;52.422;16.746;2022-12-18T06:46:38;102440.19;;;-7.30;100.00
48402;BME280;65988;52.422;16.746;2022-12-18T06:49:04;102432.91;;;-7.27;100.00
48402;BME280;65988;52.422;16.746;2022-12-18T06:51:29;102432.00;;;-7.28;100.00
48402;BME280;65988;52.422;16.746;2022-12-18T06:53:55;102464.28;;;-7.12;100.00
48402;BME280;65988;52.422;16.746;2022-12-18T06:56:20;102462.13;;;-7.07;100.00
48402;BME280;65988;52.422;16.746;2022-12-18T06:58:45;102466.41;;;-7.06;100.00
48402;BME280;65988;52.422;16.746;2022-12-18T07:01:11;102473.56;;;-7.11;100.00
48402;BME280;65988;52.422;16.746;2022-12-18T07:03:38;102479.84;;;-7.06;100.00
48402;BME280;65988;52.422;16.746;2022-12-18T07:06:03;102478.28;;;-7.26;100.00
48402;BME280;65988;52.422;16.746;2022-12-18T07:08:30;102447.91;;;-7.49;100.00
48402;BME280;65988;52.422;16.746;2022-12-18T07:10:56;102488.22;;;-7.27;100.00
48402;BME280;65988;52.422;16.746;2022-12-18T07:13:21;102466.72;;;-7.34;100.00
48402;BME280;65988;52.422;16.746;2022-12-18T07:15:46;102469.25;;;-7.34;100.00
48402;BME280;65988;52.422;16.746;2022-12-18T07:18:11;102460.56;;;-7.27;100.00
48402;BME280;65988;52.422;16.746;2022-12-18T07:20:37;102445.28;;;-7.51;100.00
48402;BME280;65988;52.422;16.746;2022-12-18T07:23:03;102454.16;;;-7.34;100.00
48402;BME280;65988;52.422;16.746;2022-12-18T07:25:30;102499.09;;;-7.06;100.00
48402;BME280;65988;52.422;16.746;2022-12-18T07:27:58;102449.13;;;-7.34;100.00
48402;BME280;65988;52.422;16.746;2022-12-18T07:30:24;102464.09;;;-7.46;100.00
48402;BME280;65988;52.422;16.746;2022-12-18T07:32:49;102488.81;;;-7.19;100.00
48402;BME280;65988;52.422;16.746;2022-12-18T07:35:15;102504.38;;;-7.03;100.00
48402;BME280;65988;52.422;16.746;2022-12-18T07:37:40;102501.13;;;-7.12;100.00
48402;BME280;65988;52.422;16.746;2022-12-18T07:40:06;102487.56;;;-7.25;100.00
48402;BME280;65988;52.422;16.746;2022-12-18T07:42:31;102485.44;;;-7.30;100.00
48402;BME280;65988;52.422;16.746;2022-12-18T07:44:59;102535.31;;;-6.94;100.00
48402;BME280;65988;52.422;16.746;2022-12-18T07:47:27;102538.38;;;-6.76;100.00
48402;BME280;65988;52.422;16.746;2022-12-18T07:49:53;102521.72;;;-6.96;100.00
48402;BME280;65988;52.422;16.746;2022-12-18T07:52:18;102546.47;;;-6.90;100.00
48402;BME280;65988;52.422;16.746;2022-12-18T07:54:44;102532.72;;;-6.73;100.00
48402;BME280;65988;52.422;16.746;2022-12-18T07:57:09;102545.69;;;-6.68;100.00
48402;BME280;65988;52.422;16.746;2022-12-18T07:59:35;102542.88;;;-6.61;100.00
48402;BME280;65988;52.422;16.746;2022-12-18T08:02:00;102495.56;;;-7.08;100.00
48402;BME280;65988;52.422;16.746;2022-12-18T08:04:25;102544.78;;;-6.69;100.00
48402;BME280;65988;52.422;16.746;2022-12-18T08:06:51;102515.59;;;-6.67;100.00
48402;BME280;65988;52.422;16.746;2022-12-18T08:09:16;102543.56;;;-6.42;100.00
48402;BME280;65988;52.422;16.746;2022-12-18T08:11:42;102550.13;;;-6.22;100.00
48402;BME280;65988;52.422;16.746;2022-12-18T08:14:07;102528.44;;;-6.42;100.00
48402;BME280;65988;52.422;16.746;2022-12-18T08:16:33;102501.44;;;-6.55;100.00
48402;BME280;65988;52.422;16.746;2022-12-18T08:18:58;102511.88;;;-6.82;100.00
48402;BME280;65988;52.422;16.746;2022-12-18T08:21:27;102527.41;;;-6.66;100.00
48402;BME280;65988;52.422;16.746;2022-12-18T08:23:54;102532.19;;;-6.37;100.00
48402;BME280;65988;52.422;16.746;2022-12-18T08:26:21;102500.94;;;-6.50;100.00
48402;BME280;65988;52.422;16.746;2022-12-18T08:28:47;102498.34;;;-6.40;100.00
48402;BME280;65988;52.422;16.746;2022-12-18T08:31:14;102528.63;;;-6.06;100.00
48402;BME280;65988;52.422;16.746;2022-12-18T08:33:40;102498.34;;;-6.40;100.00
48402;BME280;65988;52.422;16.746;2022-12-18T08:36:06;102486.16;;;-6.46;100.00
48402;BME280;65988;52.422;16.746;2022-12-18T08:38:32;102487.91;;;-6.67;100.00
48402;BME280;65988;52.422;16.746;2022-12-18T08:41:09;102512.75;;;-6.49;100.00
48402;BME280;65988;52.422;16.746;2022-12-18T08:43:34;102507.66;;;-6.39;100.00
48402;BME280;65988;52.422;16.746;2022-12-18T08:46:19;102528.63;;;-6.06;100.00
48402;BME280;65988;52.422;16.746;2022-12-18T08:48:45;102486.31;;;-6.10;100.00
48402;BME280;65988;52.422;16.746;2022-12-18T08:51:11;102496.41;;;-6.10;100.00
48402;BME280;65988;52.422;16.746;2022-12-18T08:53:37;102499.75;;;-6.22;100.00
48402;BME280;65988;52.422;16.746;2022-12-18T08:56:03;102499.81;;;-6.32;100.00
48402;BME280;65988;52.422;16.746;2022-12-18T08:58:29;102483.53;;;-6.47;100.00
48402;BME280;65988;52.422;16.746;2022-12-18T09:01:08;102499.22;;;-6.17;100.00
48402;BME280;65988;52.422;16.746;2022-12-18T09:03:36;102483.06;;;-6.31;100.00
48402;BME280;65988;52.422;16.746;2022-12-18T09:06:03;102456.81;;;-6.45;100.00
48402;BME280;65988;52.422;16.746;2022-12-18T09:08:29;102490.75;;;-5.96;100.00
48402;BME280;65988;52.422;16.746;2022-12-18T09:10:54;102492.75;;;-5.80;100.00
48402;BME280;65988;52.422;16.746;2022-12-18T09:13:20;102488.94;;;-5.75;100.00
48402;BME280;65988;52.422;16.746;2022-12-18T09:15:48;102469.88;;;-5.83;100.00
48402;BME280;65988;52.422;16.746;2022-12-18T09:18:16;102467.56;;;-5.80;100.00
48402;BME280;65988;52.422;16.746;2022-12-18T09:20:41;102437.06;;;-5.95;100.00
48402;BME280;65988;52.422;16.746;2022-12-18T09:23:07;102450.13;;;-5.77;100.00
48402;BME280;65988;52.422;16.746;2022-12-18T09:25:33;102479.69;;;-5.40;100.00
48402;BME280;65988;52.422;16.746;2022-12-18T09:28:04;102440.97;;;-5.64;100.00
48402;BME280;65988;52.422;16.746;2022-12-18T09:30:31;102465.56;;;-5.38;100.00
48402;BME280;65988;52.422;16.746;2022-12-18T09:32:58;102438.75;;;-5.60;100.00
48402;BME280;65988;52.422;16.746;2022-12-18T09:35:24;102466.31;;;-5.39;100.00
48402;BME280;65988;52.422;16.746;2022-12-18T09:37:49;102462.34;;;-5.47;100.00
48402;BME280;65988;52.422;16.746;2022-12-18T09:40:18;102443.72;;;-5.50;100.00
48402;BME280;65988;52.422;16.746;2022-12-18T09:42:59;102465.09;;;-5.21;100.00
48402;BME280;65988;52.422;16.746;2022-12-18T09:45:26;102453.59;;;-5.17;100.00
48402;BME280;65988;52.422;16.746;2022-12-18T09:47:53;102420.69;;;-5.42;100.00
48402;BME280;65988;52.422;16.746;2022-12-18T09:50:30;102442.06;;;-5.13;100.00
48402;BME280;65988;52.422;16.746;2022-12-18T09:53:02;102443.56;;;-4.80;99.90
48402;BME280;65988;52.422;16.746;2022-12-18T09:55:34;102411.00;;;-4.89;99.34
48402;BME280;65988;52.422;16.746;2022-12-18T09:58:07;102411.53;;;-4.81;99.06
48402;BME280;65988;52.422;16.746;2022-12-18T10:00:38;102418.06;;;-5.20;99.47
48402;BME280;65988;52.422;16.746;2022-12-18T10:03:10;102388.78;;;-5.42;99.80
48402;BME280;65988;52.422;16.746;2022-12-18T10:05:50;102409.41;;;-5.24;99.54
48402;BME280;65988;52.422;16.746;2022-12-18T10:08:49;102415.19;;;-5.01;99.66
48402;BME280;65988;52.422;16.746;2022-12-18T10:14:20;102411.91;;;-5.00;99.77
48402;BME280;65988;52.422;16.746;2022-12-18T10:22:16;102422.78;;;-4.64;99.07
48402;BME280;65988;52.422;16.746;2022-12-18T10:25:01;102415.13;;;-4.77;98.70
48402;BME280;65988;52.422;16.746;2022-12-18T10:27:28;102409.13;;;-4.91;98.96
48402;BME280;65988;52.422;16.746;2022-12-18T10:29:54;102404.63;;;-4.84;99.18
48402;BME280;65988;52.422;16.746;2022-12-18T10:32:26;102422.25;;;-4.72;98.74
48402;BME280;65988;52.422;16.746;2022-12-18T10:34:55;102417.53;;;-4.67;98.62
48402;BME280;65988;52.422;16.746;2022-12-18T10:37:24;102435.00;;;-4.45;98.59
48402;BME280;65988;52.422;16.746;2022-12-18T10:40:09;102433.47;;;-4.43;98.81
48402;BME280;65988;52.422;16.746;2022-12-18T10:42:35;102404.22;;;-4.65;98.19
48402;BME280;65988;52.422;16.746;2022-12-18T10:45:12;102429.28;;;-4.42;98.21
48402;BME280;65988;52.422;16.746;2022-12-18T10:47:49;102408.38;;;-4.53;98.16
48402;BME280;65988;52.422;16.746;2022-12-18T10:50:31;102376.75;;;-4.85;98.13
48402;BME280;65988;52.422;16.746;2022-12-18T10:52:59;102409.72;;;-4.58;98.05
48402;BME280;65988;52.422;16.746;2022-12-18T10:55:37;102375.50;;;-4.78;97.48
48402;BME280;65988;52.422;16.746;2022-12-18T10:58:23;102405.06;;;-4.52;98.02
48402;BME280;65988;52.422;16.746;2022-12-18T11:01:13;102391.84;;;-4.61;97.68
48402;BME280;65988;52.422;16.746;2022-12-18T11:04:00;102363.97;;;-4.75;97.84
48402;BME280;65988;52.422;16.746;2022-12-18T11:06:27;102386.91;;;-4.47;97.68
48402;BME280;65988;52.422;16.746;2022-12-18T11:09:29;102383.91;;;-4.54;97.22
48402;BME280;65988;52.422;16.746;2022-12-18T11:11:58;102360.88;;;-4.96;97.03
48402;BME280;65988;52.422;16.746;2022-12-18T11:14:29;102340.47;;;-4.99;97.21
48402;BME280;65988;52.422;16.746;2022-12-18T11:16:58;102365.75;;;-4.86;97.58
48402;BME280;65988;52.422;16.746;2022-12-18T11:19:34;102351.41;;;-4.87;97.17
48402;BME280;65988;52.422;16.746;2022-12-18T11:22:02;102349.97;;;-4.83;97.34
48402;BME280;65988;52.422;16.746;2022-12-18T11:24:32;102371.19;;;-4.42;97.09
48402;BME280;65988;52.422;16.746;2022-12-18T11:27:02;102356.25;;;-4.39;96.57
48402;BME280;65988;52.422;16.746;2022-12-18T11:32:27;102357.31;;;-4.10;96.08
48402;BME280;65988;52.422;16.746;2022-12-18T11:35:03;102321.84;;;-4.12;95.56
48402;BME280;65988;52.422;16.746;2022-12-18T11:37:34;102305.78;;;-4.26;95.31
48402;BME280;65988;52.422;16.746;2022-12-18T11:40:07;102304.97;;;-4.38;95.47
48402;BME280;65988;52.422;16.746;2022-12-18T11:42:48;102340.00;;;-4.18;95.53
48402;BME280;65988;52.422;16.746;2022-12-18T11:45:24;102328.31;;;-4.16;95.42
48402;BME280;65988;52.422;16.746;2022-12-18T11:48:01;102359.97;;;-3.82;95.76
48402;BME280;65988;52.422;16.746;2022-12-18T11:53:01;102329.22;;;-4.15;94.71
48402;BME280;65988;52.422;16.746;2022-12-18T11:55:38;102333.38;;;-4.16;94.46
48402;BME280;65988;52.422;16.746;2022-12-18T11:58:15;102339.81;;;-4.07;94.67
48402;BME280;65988;52.422;16.746;2022-12-18T12:00:50;102312.44;;;-4.40;94.87
48402;BME280;65988;52.422;16.746;2022-12-18T12:03:20;102348.91;;;-4.23;95.30
48402;BME280;65988;52.422;16.746;2022-12-18T12:11:28;102352.91;;;-4.13;94.68
48402;BME280;65988;52.422;16.746;2022-12-18T12:17:16;102356.22;;;-4.14;94.49
48402;BME280;65988;52.422;16.746;2022-12-18T12:20:11;102355.16;;;-4.04;94.02
48402;BME280;65988;52.422;16.746;2022-12-18T12:25:59;102335.19;;;-4.01;93.72
48402;BME280;65988;52.422;16.746;2022-12-18T12:34:33;102332.50;;;-4.16;94.14
48402;BME280;65988;52.422;16.746;2022-12-18T12:37:16;102338.44;;;-4.16;93.62
48402;BME280;65988;52.422;16.746;2022-12-18T12:39:46;102345.34;;;-4.13;93.50
48402;BME280;65988;52.422;16.746;2022-12-18T12:42:18;102337.28;;;-4.07;93.77
48402;BME280;65988;52.422;16.746;2022-12-18T12:45:05;102312.59;;;-4.25;93.67
48402;BME280;65988;52.422;16.746;2022-12-18T12:47:35;102350.53;;;-3.85;93.65
48402;BME280;65988;52.422;16.746;2022-12-18T12:50:06;102318.78;;;-4.20;93.49
48402;BME280;65988;52.422;16.746;2022-12-18T12:52:40;102319.16;;;-4.27;93.53
48402;BME280;65988;52.422;16.746;2022-12-18T12:55:27;102332.78;;;-4.25;94.04
48402;BME280;65988;52.422;16.746;2022-12-18T12:58:16;102306.66;;;-4.64;94.05
48402;BME280;65988;52.422;16.746;2022-12-18T13:00:56;102302.47;;;-4.89;94.36
48402;BME280;65988;52.422;16.746;2022-12-18T13:06:42;102345.16;;;-4.92;95.05
48402;BME280;65988;52.422;16.746;2022-12-18T13:09:08;102340.53;;;-4.86;95.30
48402;BME280;65988;52.422;16.746;2022-12-18T13:11:38;102358.00;;;-4.64;95.22
48402;BME280;65988;52.422;16.746;2022-12-18T13:14:28;102350.41;;;-4.89;95.46
48402;BME280;65988;52.422;16.746;2022-12-18T13:19:39;102350.56;;;-4.99;95.41
48402;BME280;65988;52.422;16.746;2022-12-18T13:22:23;102345.88;;;-5.06;94.80
48402;BME280;65988;52.422;16.746;2022-12-18T13:24:50;102334.69;;;-5.10;95.31
48402;BME280;65988;52.422;16.746;2022-12-18T13:36:00;102361.38;;;-4.88;95.46
48402;BME280;65988;52.422;16.746;2022-12-18T13:38:37;102344.97;;;-4.95;95.39
48402;BME280;65988;52.422;16.746;2022-12-18T13:49:21;102366.41;;;-4.76;95.07